Riverside, CA (92507)

6:13 AM PDT on October 25, 2014 (GMT -0700)
Highgrove, Ca | Change Station
CLOSE
Current Station
Personal Weather Station
Location: Riverside, CA
Elevation: 1129 ft
Nearby Weather Stations

Elev 1129 ft 34.01 °N, 117.31 °W | Updated 2 seconds ago

Mostly Cloudy
Mostly Cloudy
65.8 °F
Feels Like 65.8 °F
N
0.0
Wind Variable Wind from North
Gusts 0.0 mph

Today
High -- | Low -- °F
--% Chance of Precip.
Yesterday
High -- | Low -- °F
Precip. -- in
7:02 AM 6:03 PM
Waxing Crescent, 3% visible
Pressure 29.96 in
Visibility 10.0 miles
Clouds Overcast 9000 ft
Dew Point 36 °F
Humidity 33%
Rainfall 0.00 in
Snow Depth Not available.
UV 0.0 out of 12
Pollen 3.80 out of 12
Ozone Good
PM2.5 Moderate
Flu Activity Sporadic
METAR KRAL 251253Z AUTO 02005KT 10SM OVC090 18/05 A3000 RMK AO2 SLP145 T01780050

More Conditions Fewer Conditions

Pressure 29.96 in
Visibility 10.0 miles
Clouds Overcast 9000 ft
Dew Point 36 °F
Humidity 33%
Rainfall 0.00 in
Snow Depth Not available.
UV 0.0 out of 12
Pollen 3.80 out of 12
Ozone Good
PM2.5 Moderate
Flu Activity Sporadic
METAR KRAL 251253Z AUTO 02005KT 10SM OVC090 18/05 A3000 RMK AO2 SLP145 T01780050

More Conditions Fewer Conditions

10-Day Weather Forecast

Almanac

Astronomy

Oct. 25, 2014 Rise Set
Actual Time 7:02 AM PDT 6:03 PM PDT
Civil Twilight 6:37 AM PDT 6:29 PM PDT
Nautical Twilight 6:07 AM PDT 6:58 PM PDT
Astronomical Twilight 5:38 AM PDT 7:27 PM PDT
Moon 8:42 AM PDT 7:34 PM PDT
Length of Visible Light 11h 51m
Length of Day
11h 00m
Tomorrow will be 1m 57s shorter.
Waxing Crescent, 3% of the Moon is Illuminated
Today
Waxing Crescent
Oct 30
First Quarter
Nov 6
Full
Nov 14
Last Quarter
Nov 22
New

Today's Extremes

State Highs State Lows

Community

WunderPhotos

Upload Photos

1,764,824 photos uploaded!

Nearby

Air Quality

  Air Quality AQ Index Pollutant
Yesterday Moderate
PM2.5
Yesterday Good
OZONE
Current Moderate
PM2.5
Current Good
OZONE
Sunday Good
PM10
Sunday Moderate
OZONE
Sunday Good
CO
Sunday Good
NO2

Snow Depth

Station Depth Elevation
Virginia Lakes Ridge 0 in 9200 ft
Leavitt Lake 1 in 9400 ft
Leavitt Meadows 0 in 7200 ft
Sonora Pass 0 in 8800 ft
Summit Meadow 1 in 9122 ft

Earthquake Activity

City Distance Mag. Time & Date
Running Springs, California 26 miles 3.1 4:07 AM PDT
2014-10-25
Brea, California 32 miles 2.9 3:35 PM PDT
2014-10-23
Brea, California 32 miles 2.8 3:34 PM PDT
2014-10-23
Corona, California 20 miles 2.5 1:09 PM PDT
2014-10-23
Minimum magnitude displayed is 2.5.

Coastal Water Temperatures

Place Temperature
No Stations Reporting

Nearby Weather Stations